createdAt,value
2018-12-20T00:00:05.710Z,3.10
2018-12-20T00:01:05.684Z,3.12
2018-12-20T00:02:05.683Z,3.16
2018-12-20T00:03:05.696Z,3.13
2018-12-20T00:04:05.650Z,3.09
2018-12-20T00:05:05.838Z,3.10
2018-12-20T00:06:05.762Z,3.25
2018-12-20T00:07:05.656Z,3.13
2018-12-20T00:08:05.607Z,3.25
2018-12-20T00:09:05.611Z,3.16
2018-12-20T00:10:05.593Z,3.15
2018-12-20T00:11:05.581Z,3.13
2018-12-20T00:12:05.624Z,3.24
2018-12-20T00:13:05.570Z,3.15
2018-12-20T00:14:05.541Z,3.12
2018-12-20T00:15:05.530Z,3.15
2018-12-20T00:16:05.598Z,3.15
2018-12-20T00:17:05.516Z,3.16
2018-12-20T00:18:05.507Z,3.16
2018-12-20T00:19:05.487Z,3.20
2018-12-20T00:20:05.660Z,3.24
2018-12-20T00:21:05.527Z,3.13
2018-12-20T00:22:05.488Z,3.24
2018-12-20T00:23:05.520Z,3.18
2018-12-20T00:24:05.435Z,3.15
2018-12-20T00:25:05.421Z,3.15
2018-12-20T00:26:05.424Z,3.12
2018-12-20T00:27:05.588Z,3.16
2018-12-20T00:28:05.399Z,3.10
2018-12-20T00:29:05.564Z,3.16
2018-12-20T00:30:05.503Z,3.09
2018-12-20T00:31:05.468Z,3.21
2018-12-20T00:32:05.402Z,3.24
2018-12-20T00:33:05.348Z,3.15
2018-12-20T00:34:05.366Z,3.18
2018-12-20T00:35:05.334Z,3.18
2018-12-20T00:36:05.353Z,3.16
2018-12-20T00:37:05.420Z,3.18
2018-12-20T00:38:05.334Z,3.18
2018-12-20T00:39:05.411Z,3.21
2018-12-20T00:40:06.524Z,3.15
2018-12-20T00:41:05.318Z,3.20
2018-12-20T00:42:05.284Z,3.10
2018-12-20T00:43:05.237Z,3.18
2018-12-20T00:44:05.331Z,3.16
2018-12-20T00:45:05.204Z,3.05
2018-12-20T00:46:05.194Z,3.16
2018-12-20T00:47:05.227Z,3.16
2018-12-20T00:48:05.270Z,3.15
2018-12-20T00:49:05.162Z,3.12
2018-12-20T00:50:05.175Z,3.12
2018-12-20T00:51:05.139Z,3.20
2018-12-20T00:52:05.168Z,3.13
2018-12-20T00:53:05.127Z,3.13
2018-12-20T00:54:05.153Z,3.16
2018-12-20T00:55:05.105Z,3.25
2018-12-20T00:56:05.099Z,3.16
2018-12-20T00:57:05.190Z,3.16
2018-12-20T00:58:05.276Z,3.23
2018-12-20T00:59:05.066Z,3.12
2018-12-20T01:00:05.059Z,3.13
2018-12-20T01:01:05.034Z,3.20
2018-12-20T01:02:05.042Z,3.18
2018-12-20T01:03:05.069Z,3.27
2018-12-20T01:04:05.098Z,3.07
2018-12-20T01:05:04.989Z,3.15
2018-12-20T01:06:04.985Z,3.10
2018-12-20T01:07:05.092Z,3.13
2018-12-20T01:08:04.971Z,3.20
2018-12-20T01:09:05.061Z,3.24
2018-12-20T01:10:05.090Z,3.20
2018-12-20T01:11:04.925Z,3.24
2018-12-20T01:12:04.928Z,3.20
2018-12-20T01:13:04.950Z,3.23
2018-12-20T01:14:04.913Z,3.23
2018-12-20T01:15:04.912Z,3.25
2018-12-20T01:16:05.003Z,3.27
2018-12-20T01:17:04.880Z,3.20
2018-12-20T01:18:04.953Z,3.21
2018-12-20T01:19:04.991Z,3.13
2018-12-20T01:20:04.828Z,3.18
2018-12-20T01:21:04.830Z,3.15
2018-12-20T01:22:04.920Z,3.15
2018-12-20T01:23:04.859Z,3.12
2018-12-20T01:24:04.942Z,3.13
2018-12-20T01:25:04.896Z,3.13
2018-12-20T01:26:04.834Z,3.12
2018-12-20T01:27:04.756Z,3.20
2018-12-20T01:28:04.867Z,3.27
2018-12-20T01:29:04.769Z,3.25
2018-12-20T01:30:04.854Z,3.21
2018-12-20T01:31:04.711Z,3.25
2018-12-20T01:32:04.923Z,3.27
2018-12-20T01:33:04.691Z,3.24
2018-12-20T01:34:04.684Z,3.28
2018-12-20T01:35:04.692Z,3.34
2018-12-20T01:36:04.654Z,3.23
2018-12-20T01:37:04.748Z,3.20
2018-12-20T01:38:04.648Z,3.15
2018-12-20T01:39:04.707Z,3.23
2018-12-20T01:40:04.611Z,3.16
2018-12-20T01:41:04.602Z,3.21
2018-12-20T01:42:04.803Z,3.13
2018-12-20T01:43:04.757Z,3.20
2018-12-20T01:44:04.723Z,3.24
2018-12-20T01:45:04.682Z,3.10
2018-12-20T01:46:04.545Z,3.16
2018-12-20T01:47:04.535Z,3.24
2018-12-20T01:48:04.664Z,3.27
2018-12-20T01:49:04.661Z,3.24
2018-12-20T01:50:04.696Z,3.25
2018-12-20T01:51:04.543Z,3.16
2018-12-20T01:52:04.481Z,3.21
2018-12-20T01:53:04.651Z,3.16
2018-12-20T01:54:04.611Z,3.27
2018-12-20T01:55:04.602Z,3.20
2018-12-20T01:56:04.592Z,3.24
2018-12-20T01:57:04.664Z,3.12
2018-12-20T01:58:04.594Z,3.20
2018-12-20T01:59:04.520Z,3.12
2018-12-20T02:00:04.508Z,3.10
2018-12-20T02:01:04.385Z,3.10
2018-12-20T02:02:04.390Z,3.23
2018-12-20T02:03:04.373Z,3.23
2018-12-20T02:04:04.518Z,3.27
2018-12-20T02:05:04.413Z,3.15
2018-12-20T02:06:04.348Z,3.13
2018-12-20T02:07:04.323Z,3.25
2018-12-20T02:08:04.323Z,3.24
2018-12-20T02:09:04.314Z,3.18
2018-12-20T02:10:04.296Z,3.10
2018-12-20T02:11:04.396Z,3.15
2018-12-20T02:12:04.409Z,3.21
2018-12-20T02:13:04.317Z,3.20
2018-12-20T02:14:04.319Z,3.25
2018-12-20T02:15:04.349Z,3.13
2018-12-20T02:16:04.222Z,3.21
2018-12-20T02:17:04.269Z,3.13
2018-12-20T02:18:04.234Z,3.12
2018-12-20T02:19:04.263Z,3.15
2018-12-20T02:20:04.297Z,3.18
2018-12-20T02:21:04.425Z,3.12
2018-12-20T02:22:04.183Z,3.16
2018-12-20T02:23:04.392Z,3.15
2018-12-20T02:24:04.136Z,3.16
2018-12-20T02:25:04.138Z,3.07
2018-12-20T02:26:04.116Z,3.25
2018-12-20T02:27:04.107Z,3.16
2018-12-20T02:28:04.131Z,3.10
2018-12-20T02:29:04.244Z,3.15
2018-12-20T02:30:04.082Z,3.12
2018-12-20T02:31:04.127Z,3.12
2018-12-20T02:32:04.244Z,3.05
2018-12-20T02:33:04.165Z,3.20
2018-12-20T02:34:04.031Z,3.20
2018-12-20T02:35:05.044Z,3.15
2018-12-20T02:36:04.012Z,3.13
2018-12-20T02:37:04.021Z,3.16
2018-12-20T02:38:04.062Z,3.15
2018-12-20T02:39:04.001Z,3.10
2018-12-20T02:40:04.018Z,3.10
2018-12-20T02:41:04.963Z,3.12
2018-12-20T02:42:03.948Z,3.10
2018-12-20T02:43:04.121Z,3.18
2018-12-20T02:44:03.940Z,3.15
2018-12-20T02:45:10.861Z,3.12
2018-12-20T02:46:05.002Z,3.10
2018-12-20T02:47:03.984Z,3.20
2018-12-20T02:48:03.878Z,3.16
2018-12-20T02:49:03.961Z,3.21
2018-12-20T02:50:03.866Z,3.10
2018-12-20T02:51:03.998Z,3.07
2018-12-20T02:52:03.834Z,3.16
2018-12-20T02:53:03.824Z,3.23
2018-12-20T02:54:04.080Z,3.23
2018-12-20T02:55:03.873Z,3.18
2018-12-20T02:56:03.838Z,3.20
2018-12-20T02:57:03.782Z,3.18
2018-12-20T02:58:03.944Z,3.13
2018-12-20T02:59:03.900Z,3.13
2018-12-20T03:00:03.756Z,3.12
2018-12-20T03:01:03.802Z,3.15
2018-12-20T03:02:03.794Z,3.13
2018-12-20T03:03:03.718Z,3.16
2018-12-20T03:04:03.711Z,3.13
2018-12-20T03:05:03.696Z,3.18
2018-12-20T03:06:03.750Z,3.18
2018-12-20T03:07:03.673Z,3.18
2018-12-20T03:08:03.798Z,3.20
2018-12-20T03:09:03.653Z,3.24
2018-12-20T03:10:03.644Z,3.13
2018-12-20T03:11:03.665Z,3.20
2018-12-20T03:12:03.619Z,3.15
2018-12-20T03:13:03.621Z,3.16
2018-12-20T03:14:03.655Z,3.15
2018-12-20T03:15:03.587Z,3.16
2018-12-20T03:16:03.682Z,3.18
2018-12-20T03:17:03.650Z,3.21
2018-12-20T03:18:03.640Z,3.13
2018-12-20T03:19:03.552Z,3.16
2018-12-20T03:20:03.534Z,3.09
2018-12-20T03:21:03.663Z,3.09
2018-12-20T03:22:03.514Z,3.12
2018-12-20T03:23:03.613Z,3.13
2018-12-20T03:24:03.522Z,3.09
2018-12-20T03:25:03.480Z,3.12
2018-12-20T03:26:03.496Z,3.03
2018-12-20T03:27:03.466Z,3.06
2018-12-20T03:28:03.447Z,3.03
2018-12-20T03:29:03.440Z,3.06
2018-12-20T03:30:03.721Z,3.10
2018-12-20T03:31:03.424Z,3.07
2018-12-20T03:32:03.404Z,3.00
2018-12-20T03:33:03.628Z,3.09
2018-12-20T03:34:03.381Z,3.03
2018-12-20T03:35:03.377Z,3.00
2018-12-20T03:36:03.489Z,2.98
2018-12-20T03:37:03.397Z,3.07
2018-12-20T03:38:03.364Z,3.09
2018-12-20T03:39:03.474Z,3.02
2018-12-20T03:40:03.510Z,2.98
2018-12-20T03:41:03.581Z,3.10
2018-12-20T03:42:03.302Z,3.02
2018-12-20T03:43:03.314Z,2.97
2018-12-20T03:44:03.274Z,3.02
2018-12-20T03:45:03.459Z,3.10
2018-12-20T03:46:03.263Z,3.06
2018-12-20T03:47:03.390Z,3.10
2018-12-20T03:48:03.264Z,3.07
2018-12-20T03:49:03.220Z,3.13
2018-12-20T03:50:03.408Z,3.00
2018-12-20T03:51:03.272Z,3.09
2018-12-20T03:52:03.202Z,3.07
2018-12-20T03:53:03.180Z,3.05
2018-12-20T03:54:03.176Z,3.02
2018-12-20T03:55:03.253Z,3.02
2018-12-20T03:56:03.339Z,3.06
2018-12-20T03:57:03.201Z,3.03
2018-12-20T03:58:03.276Z,2.97
2018-12-20T03:59:03.174Z,3.03
2018-12-20T04:00:03.294Z,2.97
2018-12-20T04:01:03.100Z,3.02
2018-12-20T04:02:03.079Z,3.02
2018-12-20T04:03:03.372Z,3.07
2018-12-20T04:04:03.214Z,3.00
2018-12-20T04:05:03.054Z,2.98
2018-12-20T04:06:03.241Z,3.06
2018-12-20T04:07:03.025Z,3.00
2018-12-20T04:08:03.314Z,3.02
2018-12-20T04:09:03.227Z,3.07
2018-12-20T04:10:03.281Z,3.12
2018-12-20T04:11:02.997Z,3.12
2018-12-20T04:12:03.144Z,3.00
2018-12-20T04:13:03.111Z,3.07
2018-12-20T04:14:03.149Z,3.10
2018-12-20T04:15:02.942Z,3.07
2018-12-20T04:16:02.938Z,3.12
2018-12-20T04:17:02.919Z,3.06
2018-12-20T04:18:03.062Z,3.10
2018-12-20T04:19:03.014Z,3.07
2018-12-20T04:20:02.883Z,3.07
2018-12-20T04:21:02.899Z,3.07
2018-12-20T04:22:03.067Z,3.06
2018-12-20T04:23:02.858Z,3.07
2018-12-20T04:24:02.856Z,3.02
2018-12-20T04:25:02.850Z,3.10
2018-12-20T04:26:02.819Z,3.02
2018-12-20T04:27:02.930Z,3.03
2018-12-20T04:28:02.954Z,3.05
2018-12-20T04:29:02.786Z,3.00
2018-12-20T04:30:02.779Z,3.02
2018-12-20T04:31:02.822Z,3.00
2018-12-20T04:32:02.778Z,3.03
2018-12-20T04:33:02.811Z,3.02
2018-12-20T04:34:03.019Z,3.03
2018-12-20T04:35:02.770Z,3.00
2018-12-20T04:36:02.751Z,3.09
2018-12-20T04:37:02.905Z,3.05
2018-12-20T04:38:02.693Z,3.06
2018-12-20T04:39:02.678Z,3.15
2018-12-20T04:40:02.917Z,3.09
2018-12-20T04:41:02.727Z,3.10
2018-12-20T04:42:02.656Z,3.10
2018-12-20T04:43:02.632Z,3.07
2018-12-20T04:44:02.626Z,3.07
2018-12-20T04:45:02.933Z,3.07
2018-12-20T04:46:02.883Z,3.00
2018-12-20T04:47:02.727Z,3.06
2018-12-20T04:48:02.613Z,3.00
2018-12-20T04:49:02.664Z,3.09
2018-12-20T04:50:02.675Z,3.07
2018-12-20T04:51:02.838Z,3.06
2018-12-20T04:52:02.758Z,3.09
2018-12-20T04:53:02.786Z,3.06
2018-12-20T04:54:02.778Z,3.02
2018-12-20T04:55:02.502Z,3.09
2018-12-20T04:56:02.853Z,3.15
2018-12-20T04:57:02.493Z,3.05
2018-12-20T04:58:02.672Z,3.09
2018-12-20T04:59:02.605Z,2.97
2018-12-20T05:00:02.451Z,3.10
2018-12-20T05:01:02.488Z,2.98
2018-12-20T05:02:02.648Z,3.06
2018-12-20T05:03:02.635Z,3.10
2018-12-20T05:04:02.505Z,3.06
2018-12-20T05:05:02.686Z,3.10
2018-12-20T05:06:02.390Z,3.12
2018-12-20T05:07:02.421Z,3.10
2018-12-20T05:08:02.364Z,3.07
2018-12-20T05:09:02.440Z,2.98
2018-12-20T05:10:02.550Z,3.06
2018-12-20T05:11:02.342Z,3.09
2018-12-20T05:12:02.506Z,3.12
2018-12-20T05:13:02.376Z,3.09
2018-12-20T05:14:02.685Z,3.12
2018-12-20T05:15:02.485Z,3.13
2018-12-20T05:16:02.474Z,3.16
2018-12-20T05:17:02.541Z,3.09
2018-12-20T05:18:02.405Z,3.12
2018-12-20T05:19:02.264Z,3.07
2018-12-20T05:20:02.425Z,3.10
2018-12-20T05:21:02.418Z,3.07
2018-12-20T05:22:02.268Z,3.09
2018-12-20T05:23:02.200Z,3.09
2018-12-20T05:24:02.189Z,3.05
2018-12-20T05:25:02.182Z,3.05
2018-12-20T05:26:02.398Z,3.09
2018-12-20T05:27:02.166Z,3.07
2018-12-20T05:28:02.145Z,2.98
2018-12-20T05:29:02.227Z,3.12
2018-12-20T05:30:02.302Z,3.10
2018-12-20T05:31:02.323Z,3.03
2018-12-20T05:32:02.135Z,3.07
2018-12-20T05:33:02.092Z,3.05
2018-12-20T05:34:02.082Z,3.12
2018-12-20T05:35:02.194Z,3.07
2018-12-20T05:36:02.373Z,3.12
2018-12-20T05:37:02.068Z,3.10
2018-12-20T05:40:50.329Z,3.09
2018-12-20T05:41:28.624Z,3.09
2018-12-20T05:42:28.825Z,3.09
2018-12-20T05:43:28.740Z,3.09
2018-12-20T05:44:28.763Z,3.09
2018-12-20T05:45:28.706Z,3.18
2018-12-20T05:46:28.541Z,3.02
2018-12-20T05:47:28.745Z,3.15
2018-12-20T05:48:28.618Z,3.07
2018-12-20T05:49:28.535Z,3.09
2018-12-20T05:50:28.484Z,3.10
2018-12-20T05:51:28.536Z,3.09
2018-12-20T05:52:28.700Z,3.09
2018-12-20T05:53:30.196Z,3.12
2018-12-20T05:54:28.485Z,3.09
2018-12-20T05:55:28.600Z,3.12
2018-12-20T05:56:28.424Z,3.09
2018-12-20T05:57:28.517Z,3.13
2018-12-20T05:58:28.577Z,3.13
2018-12-20T05:59:28.487Z,3.00
2018-12-20T06:00:28.374Z,3.03
2018-12-20T06:01:28.626Z,3.02
2018-12-20T06:02:28.552Z,3.02
2018-12-20T06:03:28.385Z,3.05
2018-12-20T06:04:28.535Z,3.06
2018-12-20T06:05:28.351Z,3.00
2018-12-20T06:06:28.310Z,3.00
2018-12-20T06:07:28.550Z,3.06
2018-12-20T06:08:28.289Z,2.95
2018-12-20T06:09:28.295Z,2.98
2018-12-20T06:10:28.301Z,3.03
2018-12-20T06:11:28.261Z,3.06
2018-12-20T06:12:28.259Z,2.97
2018-12-20T06:13:28.248Z,2.98
2018-12-20T06:14:28.390Z,3.00
2018-12-20T06:15:28.215Z,3.09
2018-12-20T06:16:28.209Z,3.00
2018-12-20T06:17:35.540Z,3.00
2018-12-20T06:18:28.205Z,3.06
2018-12-20T06:19:28.208Z,2.98
2018-12-20T06:20:28.461Z,3.10
2018-12-20T06:21:28.154Z,3.09
2018-12-20T06:22:28.704Z,3.10
2018-12-20T06:23:28.131Z,3.02
2018-12-20T06:24:28.118Z,3.13
2018-12-20T06:25:28.107Z,3.06
2018-12-20T06:26:28.099Z,3.02
2018-12-20T06:27:28.091Z,2.97
2018-12-20T06:28:28.088Z,3.12
2018-12-20T06:29:28.065Z,3.05
2018-12-20T06:30:28.059Z,3.05
2018-12-20T06:31:28.048Z,3.06
2018-12-20T06:32:28.035Z,3.03
2018-12-20T06:33:28.033Z,3.13
2018-12-20T06:34:28.015Z,3.07
2018-12-20T06:35:28.002Z,3.03
2018-12-20T06:36:27.993Z,3.06
2018-12-20T06:37:27.980Z,3.05
2018-12-20T06:38:27.982Z,3.13
2018-12-20T06:39:27.959Z,3.06
2018-12-20T06:40:27.948Z,2.98
2018-12-20T06:41:27.940Z,2.97
2018-12-20T06:42:27.931Z,3.07
2018-12-20T06:43:27.925Z,3.07
2018-12-20T06:44:27.906Z,3.06
2018-12-20T06:45:27.895Z,3.03
2018-12-20T06:46:27.885Z,3.10
2018-12-20T06:47:27.874Z,3.00
2018-12-20T06:48:27.873Z,3.12
2018-12-20T06:49:27.855Z,3.09
2018-12-20T06:50:27.842Z,3.12
2018-12-20T06:51:27.831Z,3.09
2018-12-20T06:52:27.825Z,3.02
2018-12-20T06:53:27.820Z,3.12
2018-12-20T06:54:27.799Z,2.98
2018-12-20T06:55:27.789Z,2.97
2018-12-20T06:56:27.782Z,3.07
2018-12-20T06:57:29.553Z,3.10
2018-12-20T06:58:27.770Z,2.98
2018-12-20T06:59:27.745Z,3.10
2018-12-20T07:00:27.735Z,2.97
2018-12-20T07:01:27.726Z,3.09
2018-12-20T07:02:27.723Z,3.05
2018-12-20T07:03:27.709Z,3.07
2018-12-20T07:04:27.694Z,3.07
2018-12-20T07:05:27.681Z,3.07
2018-12-20T07:06:27.672Z,3.12
2018-12-20T07:07:27.662Z,3.06
2018-12-20T07:08:27.659Z,3.10
2018-12-20T07:09:27.640Z,3.09
2018-12-20T07:10:27.628Z,3.10
2018-12-20T07:11:27.618Z,3.10
2018-12-20T07:12:27.606Z,3.15
2018-12-20T07:13:27.604Z,3.09
2018-12-20T07:14:27.589Z,3.15
2018-12-20T07:15:27.576Z,3.09
2018-12-20T07:16:29.437Z,3.06
2018-12-20T07:17:27.555Z,3.10
2018-12-20T07:18:27.549Z,3.07
2018-12-20T07:19:27.532Z,3.06
2018-12-20T07:20:27.520Z,3.05
2018-12-20T07:21:27.511Z,3.06
2018-12-20T07:22:27.500Z,3.03
2018-12-20T07:23:27.499Z,3.07
2018-12-20T07:24:27.480Z,3.12
2018-12-20T07:25:27.470Z,3.00
2018-12-20T07:26:27.458Z,3.10
2018-12-20T07:27:27.452Z,2.97
2018-12-20T07:28:27.446Z,3.06
2018-12-20T07:29:27.425Z,2.95
2018-12-20T07:30:27.414Z,2.98
2018-12-20T07:31:27.407Z,3.02
2018-12-20T07:32:27.394Z,3.05
2018-12-20T07:33:27.392Z,2.97
2018-12-20T07:34:27.373Z,3.05
2018-12-20T07:35:27.366Z,3.03
2018-12-20T07:36:27.352Z,3.03
2018-12-20T07:37:27.345Z,2.97
2018-12-20T07:38:27.342Z,3.06
2018-12-20T07:39:27.321Z,2.97
2018-12-20T07:40:27.310Z,2.88
2018-12-20T07:41:27.302Z,2.82
2018-12-20T07:42:27.292Z,2.97
2018-12-20T07:43:27.287Z,2.84
2018-12-20T07:44:27.267Z,2.88
2018-12-20T07:45:27.257Z,2.92
2018-12-20T07:46:27.246Z,2.92
2018-12-20T07:47:27.240Z,2.84
2018-12-20T07:48:32.052Z,2.81
2018-12-20T07:49:28.216Z,2.85
2018-12-20T07:50:27.201Z,2.87
2018-12-20T07:51:27.191Z,2.91
2018-12-20T07:52:27.183Z,2.87
2018-12-20T07:53:27.202Z,2.88
2018-12-20T07:54:27.164Z,2.92
2018-12-20T07:55:27.196Z,2.87
2018-12-20T07:56:27.138Z,2.97
2018-12-20T07:57:27.133Z,2.94
2018-12-20T07:58:27.118Z,2.91
2018-12-20T07:59:27.117Z,2.95
2018-12-20T08:00:27.112Z,2.87
2018-12-20T08:01:27.083Z,2.94
2018-12-20T08:02:27.074Z,3.03
2018-12-20T08:03:27.063Z,2.91
2018-12-20T08:04:27.066Z,2.98
2018-12-20T08:05:27.041Z,2.89
2018-12-20T08:06:27.032Z,2.88
2018-12-20T08:07:27.023Z,2.94
2018-12-20T08:08:27.011Z,2.94
2018-12-20T08:09:27.005Z,2.97
2018-12-20T08:10:26.989Z,2.97
2018-12-20T08:11:26.976Z,2.95
2018-12-20T08:12:26.972Z,3.06
2018-12-20T08:13:26.957Z,3.02
2018-12-20T08:14:26.952Z,3.02
2018-12-20T08:15:26.934Z,3.03
2018-12-20T08:16:26.924Z,3.13
2018-12-20T08:17:26.916Z,2.97
2018-12-20T08:18:26.902Z,3.05
2018-12-20T08:19:26.902Z,3.06
2018-12-20T08:20:26.879Z,3.07
2018-12-20T08:21:26.876Z,3.09
2018-12-20T08:22:26.865Z,3.07
2018-12-20T08:23:26.849Z,3.12
2018-12-20T08:24:26.850Z,3.21
2018-12-20T08:25:26.827Z,3.21
2018-12-20T08:26:26.817Z,3.16
2018-12-20T08:27:26.812Z,3.12
2018-12-20T08:28:26.797Z,3.20
2018-12-20T08:29:26.900Z,3.25
2018-12-20T08:30:26.773Z,3.28
2018-12-20T08:31:26.763Z,3.39
2018-12-20T08:32:26.754Z,3.36
2018-12-20T08:33:26.741Z,3.39
2018-12-20T08:34:26.740Z,3.31
2018-12-20T08:35:26.721Z,3.39
2018-12-20T08:36:26.710Z,3.40
2018-12-20T08:37:26.699Z,3.50
2018-12-20T08:38:26.688Z,3.52
2018-12-20T08:39:26.687Z,3.54
2018-12-20T08:40:26.666Z,3.61
2018-12-20T08:41:26.664Z,3.62
2018-12-20T08:42:26.644Z,3.68
2018-12-20T08:43:26.636Z,3.67
2018-12-20T08:44:26.631Z,3.67
2018-12-20T08:45:26.612Z,3.70
2018-12-20T08:46:26.604Z,3.67
2018-12-20T08:47:26.600Z,3.83
2018-12-20T08:48:26.581Z,3.71
2018-12-20T08:49:26.578Z,3.76
2018-12-20T08:50:26.558Z,3.85
2018-12-20T08:51:26.550Z,3.83
2018-12-20T08:52:26.542Z,3.80
2018-12-20T08:53:26.529Z,3.82
2018-12-20T08:54:26.527Z,3.88
2018-12-20T08:55:26.508Z,3.82
2018-12-20T08:56:26.498Z,3.86
2018-12-20T08:57:26.489Z,3.82
2018-12-20T08:58:26.474Z,3.86
2018-12-20T08:59:26.477Z,3.97
2018-12-20T09:00:26.459Z,3.98
2018-12-20T09:01:26.443Z,4.01
2018-12-20T09:02:26.441Z,3.98
2018-12-20T09:03:26.423Z,4.01
2018-12-20T09:04:26.419Z,4.00
2018-12-20T09:05:26.401Z,3.98
2018-12-20T09:06:26.390Z,3.88
2018-12-20T09:07:26.383Z,3.92
2018-12-20T09:08:26.376Z,3.86
2018-12-20T09:09:26.471Z,3.86
2018-12-20T09:10:26.349Z,3.88
2018-12-20T09:11:26.338Z,3.82
2018-12-20T09:12:26.327Z,3.88
2018-12-20T09:13:26.318Z,3.83
2018-12-20T09:14:26.309Z,3.90
2018-12-20T09:15:26.305Z,3.90
2018-12-20T09:16:26.287Z,3.85
2018-12-20T09:17:26.280Z,3.86
2018-12-20T09:18:26.265Z,3.88
2018-12-20T09:19:26.254Z,3.86
2018-12-20T09:20:32.722Z,3.82
2018-12-20T09:21:27.230Z,3.82
2018-12-20T09:22:26.222Z,3.90
2018-12-20T09:23:26.213Z,3.85
2018-12-20T09:24:26.203Z,3.85
2018-12-20T09:25:26.198Z,3.83
2018-12-20T09:26:26.187Z,3.86
2018-12-20T09:27:26.194Z,3.90
2018-12-20T09:28:26.160Z,3.90
2018-12-20T09:29:26.148Z,3.86
2018-12-20T09:30:30.440Z,3.88
2018-12-20T09:31:26.129Z,3.76
2018-12-20T09:32:26.116Z,3.79
2018-12-20T09:33:26.106Z,3.82
2018-12-20T09:34:26.098Z,3.83
2018-12-20T09:35:26.093Z,3.85
2018-12-20T09:36:26.080Z,3.85
2018-12-20T09:37:26.063Z,3.82
2018-12-20T09:38:26.053Z,3.82
2018-12-20T09:39:26.045Z,3.83
2018-12-20T09:40:26.041Z,3.83
2018-12-20T09:41:26.024Z,3.86
2018-12-20T09:42:26.012Z,3.83
2018-12-20T09:43:26.001Z,3.89
2018-12-20T09:44:25.998Z,4.00
2018-12-20T09:45:25.989Z,4.03
2018-12-20T09:46:25.972Z,3.92
2018-12-20T09:47:25.961Z,4.00
2018-12-20T09:48:25.949Z,4.08
2018-12-20T09:49:25.938Z,4.00
2018-12-20T09:50:25.943Z,4.00
2018-12-20T09:51:25.917Z,4.00
2018-12-20T09:52:25.907Z,4.01
2018-12-20T09:53:25.897Z,4.01
2018-12-20T09:54:25.888Z,4.01
2018-12-20T09:55:25.883Z,4.00
2018-12-20T09:56:25.869Z,4.00
2018-12-20T09:57:25.854Z,4.06
2018-12-20T09:58:25.846Z,4.12
2018-12-20T09:59:25.835Z,4.08
2018-12-20T10:00:25.833Z,3.98
2018-12-20T10:01:25.812Z,4.18
2018-12-20T10:02:25.808Z,4.16
2018-12-20T10:03:25.791Z,4.24
2018-12-20T10:04:25.780Z,4.24
2018-12-20T10:05:25.779Z,4.18
2018-12-20T10:06:25.765Z,4.22
2018-12-20T10:07:25.759Z,4.21
2018-12-20T10:08:25.738Z,4.18
2018-12-20T10:09:25.732Z,4.24
2018-12-20T10:10:25.729Z,4.25
2018-12-20T10:11:25.708Z,4.26
2018-12-20T10:12:25.695Z,4.33
2018-12-20T10:13:25.770Z,4.24
2018-12-20T10:14:25.679Z,4.24
2018-12-20T10:15:25.671Z,4.22
2018-12-20T10:16:25.655Z,4.25
2018-12-20T10:17:25.642Z,4.25
2018-12-20T10:18:25.640Z,4.22
2018-12-20T10:19:25.627Z,4.19
2018-12-20T10:20:25.625Z,4.22
2018-12-20T10:21:25.602Z,4.24
2018-12-20T10:22:25.589Z,4.25
2018-12-20T10:23:25.581Z,4.25
2018-12-20T10:24:25.568Z,4.28
2018-12-20T10:25:25.566Z,4.33
2018-12-20T10:26:25.547Z,4.40
2018-12-20T10:27:31.314Z,4.40
2018-12-20T10:28:26.526Z,4.33
2018-12-20T10:29:25.518Z,4.37
2018-12-20T10:30:25.513Z,4.44
2018-12-20T10:31:25.496Z,4.39
2018-12-20T10:32:25.486Z,4.42
2018-12-20T10:33:25.484Z,4.47
2018-12-20T10:34:25.464Z,4.51
2018-12-20T10:35:25.461Z,4.52
2018-12-20T10:36:25.441Z,4.52
2018-12-20T10:37:25.434Z,4.54
2018-12-20T10:38:25.419Z,4.58
2018-12-20T10:39:25.414Z,4.61
2018-12-20T10:40:25.427Z,4.58
2018-12-20T10:41:25.386Z,4.62
2018-12-20T10:42:25.377Z,4.65
2018-12-20T10:43:25.366Z,4.72
2018-12-20T10:44:25.356Z,4.67
2018-12-20T10:45:25.349Z,4.65
2018-12-20T10:46:25.344Z,4.70
2018-12-20T10:47:29.217Z,4.70
2018-12-20T10:48:25.313Z,4.69
2018-12-20T10:49:25.306Z,4.83
2018-12-20T10:50:25.291Z,4.70
2018-12-20T10:51:25.288Z,4.80
2018-12-20T10:52:25.269Z,4.91
2018-12-20T10:53:25.314Z,4.88
2018-12-20T10:54:25.250Z,4.86
2018-12-20T10:55:25.238Z,4.94
2018-12-20T10:56:25.234Z,4.88
2018-12-20T10:57:25.214Z,4.76
2018-12-20T10:58:25.206Z,4.80
2018-12-20T10:59:25.204Z,4.79
2018-12-20T11:00:25.183Z,4.77
2018-12-20T11:01:25.179Z,4.79
2018-12-20T11:02:25.233Z,4.80
2018-12-20T11:03:25.149Z,4.79
2018-12-20T11:04:25.144Z,4.83
2018-12-20T11:05:25.128Z,4.79
2018-12-20T11:06:25.130Z,4.88
2018-12-20T11:07:25.112Z,4.89
2018-12-20T11:08:25.096Z,4.94
2018-12-20T11:09:25.087Z,4.88
2018-12-20T11:10:25.075Z,4.88
2018-12-20T11:11:25.074Z,4.77
2018-12-20T11:12:25.056Z,4.79
2018-12-20T11:13:25.046Z,4.80
2018-12-20T11:14:25.031Z,4.70
2018-12-20T11:15:25.021Z,4.69
2018-12-20T11:16:25.017Z,4.77
2018-12-20T11:17:25.001Z,4.76
2018-12-20T11:18:24.990Z,4.80
2018-12-20T11:19:24.977Z,4.80
2018-12-20T11:20:24.966Z,4.77
2018-12-20T11:21:24.963Z,4.73
2018-12-20T11:22:24.948Z,4.79
2018-12-20T11:23:24.939Z,4.73
2018-12-20T11:24:24.923Z,4.80
2018-12-20T11:25:24.914Z,4.84
2018-12-20T11:26:24.912Z,4.83
2018-12-20T11:27:24.890Z,4.92
2018-12-20T11:28:24.881Z,4.92
2018-12-20T11:29:24.871Z,4.95
2018-12-20T11:30:24.859Z,4.83
2018-12-20T11:31:24.859Z,4.96
2018-12-20T11:32:24.838Z,4.91
2018-12-20T11:33:24.827Z,4.94
2018-12-20T11:34:24.819Z,4.98
2018-12-20T11:35:24.805Z,4.91
2018-12-20T11:36:24.823Z,4.99
2018-12-20T11:37:24.785Z,4.92
2018-12-20T11:38:24.772Z,4.94
2018-12-20T11:39:24.762Z,4.91
2018-12-20T11:40:24.752Z,4.96
2018-12-20T11:41:24.750Z,4.94
2018-12-20T11:42:24.739Z,4.92
2018-12-20T11:43:24.718Z,4.95
2018-12-20T11:44:24.711Z,5.01
2018-12-20T11:45:24.700Z,4.95
2018-12-20T11:46:24.686Z,4.95
2018-12-20T11:47:24.683Z,5.01
2018-12-20T11:48:24.665Z,5.09
2018-12-20T11:49:24.655Z,4.95
2018-12-20T11:50:24.645Z,4.96
2018-12-20T11:51:24.632Z,5.04
2018-12-20T11:52:24.634Z,4.94
2018-12-20T11:53:24.611Z,4.95
2018-12-20T11:54:24.601Z,4.95
2018-12-20T11:55:24.594Z,4.94
2018-12-20T11:56:24.579Z,4.98
2018-12-20T11:57:24.575Z,5.01
2018-12-20T11:58:24.557Z,4.96
2018-12-20T11:59:24.559Z,4.94
2018-12-20T12:00:24.538Z,5.10
2018-12-20T12:01:24.524Z,4.94
2018-12-20T12:02:24.890Z,4.94
2018-12-20T12:03:24.504Z,4.95
2018-12-20T12:04:24.494Z,5.05
2018-12-20T12:05:24.484Z,4.95
2018-12-20T12:06:24.471Z,4.95
2018-12-20T12:07:24.467Z,4.95
2018-12-20T12:08:24.449Z,4.98
2018-12-20T12:09:24.438Z,5.04
2018-12-20T12:10:24.434Z,4.99
2018-12-20T12:11:24.417Z,5.01
2018-12-20T12:12:24.416Z,5.07
2018-12-20T12:13:24.401Z,5.05
2018-12-20T12:14:24.385Z,5.05
2018-12-20T12:15:26.532Z,5.05
2018-12-20T12:16:24.362Z,5.10
2018-12-20T12:17:24.379Z,5.01
2018-12-20T12:18:24.340Z,5.07
2018-12-20T12:19:24.331Z,5.05
2018-12-20T12:20:24.320Z,5.13
2018-12-20T12:21:24.309Z,5.10
2018-12-20T12:22:24.298Z,5.05
2018-12-20T12:23:24.296Z,5.09
2018-12-20T12:24:24.276Z,5.02
2018-12-20T12:25:24.265Z,5.07
2018-12-20T12:26:24.254Z,4.96
2018-12-20T12:27:24.245Z,4.99
2018-12-20T12:28:24.242Z,4.92
2018-12-20T12:29:24.225Z,4.99
2018-12-20T12:30:24.217Z,5.01
2018-12-20T12:31:24.202Z,5.07
2018-12-20T12:32:24.194Z,5.04
2018-12-20T12:33:24.190Z,5.02
2018-12-20T12:34:24.171Z,5.05
2018-12-20T12:35:24.163Z,5.02
2018-12-20T12:36:24.150Z,4.94
2018-12-20T12:37:24.138Z,4.95
2018-12-20T12:38:24.137Z,4.99
2018-12-20T12:39:24.120Z,5.01
2018-12-20T12:40:24.180Z,5.02
2018-12-20T12:41:24.098Z,5.10
2018-12-20T12:42:24.085Z,5.09
2018-12-20T12:43:24.083Z,5.02
2018-12-20T12:44:24.065Z,5.12
2018-12-20T12:45:24.052Z,5.16
2018-12-20T12:46:24.043Z,5.14
2018-12-20T12:47:24.032Z,5.09
2018-12-20T12:48:24.032Z,5.12
2018-12-20T12:49:24.212Z,5.27
2018-12-20T12:50:24.005Z,5.14
2018-12-20T12:51:23.990Z,5.32
2018-12-20T12:52:23.979Z,5.30
2018-12-20T12:53:23.980Z,5.22
2018-12-20T12:54:23.957Z,5.23
2018-12-20T12:55:23.947Z,5.16
2018-12-20T12:56:23.939Z,5.28
2018-12-20T12:57:23.925Z,5.30
2018-12-20T12:58:23.928Z,5.22
2018-12-20T12:59:23.908Z,5.27
2018-12-20T13:00:23.892Z,5.25
2018-12-20T13:01:23.883Z,5.22
2018-12-20T13:02:23.876Z,5.25
2018-12-20T13:03:23.873Z,5.35
2018-12-20T13:04:23.853Z,5.35
2018-12-20T13:05:23.841Z,5.34
2018-12-20T13:06:23.841Z,5.32
2018-12-20T13:07:23.818Z,5.40
2018-12-20T13:08:23.821Z,5.34
2018-12-20T13:09:23.797Z,5.46
2018-12-20T13:10:23.789Z,5.50
2018-12-20T13:11:23.774Z,5.46
2018-12-20T13:12:23.765Z,5.50
2018-12-20T13:13:23.763Z,5.40
2018-12-20T13:14:23.749Z,5.52
2018-12-20T13:15:23.736Z,5.48
2018-12-20T13:16:23.730Z,5.60
2018-12-20T13:17:23.711Z,5.57
2018-12-20T13:18:23.707Z,5.57
2018-12-20T13:19:23.689Z,5.53
2018-12-20T13:20:23.680Z,5.57